Time;durP1;ratioP1;P1;durP2;ratioP2;P2;SDS_P1;SDS_P2;PMS_P1;PMS_P2;Temp;Humidity;BMP_temperature;BMP_pressure;BME280_temperature;BME280_humidity;BME280_pressure;Samples;Min_cycle;Max_cycle;Signal;HPM_P1;HPM_P2
2022/04/19 00:01:13;;;;;;;7.37;2.10;;;6.70;93.40;;;7.39;80.79;97911.88;4964827;28;20716;-85
2022/04/19 00:03:45;;;;;;;1.73;1.37;;;6.50;93.60;;;7.41;80.59;97907.31;4961887;28;20986;-85
2022/04/19 00:06:14;;;;;;;3.10;2.20;;;6.50;93.80;;;7.32;81.00;97911.75;4961118;28;20447;-85
2022/04/19 00:08:45;;;;;;;2.87;1.90;;;6.50;93.60;;;7.39;81.34;97910.06;4959411;28;20477;-85
2022/04/19 00:11:15;;;;;;;2.90;1.83;;;6.50;94.00;;;7.29;81.42;97901.66;4962646;28;20444;-85
2022/04/19 00:13:45;;;;;;;1.73;1.60;;;6.40;93.70;;;7.18;82.12;97907.28;4961224;28;21390;-84
2022/04/19 00:16:15;;;;;;;4.07;2.30;;;6.30;94.20;;;7.15;82.66;97893.78;4960560;28;20487;-84
2022/04/19 00:18:46;;;;;;;4.70;2.00;;;6.20;94.20;;;7.14;82.68;97895.59;4959630;28;21507;-84
2022/04/19 00:21:16;;;;;;;4.07;1.97;;;6.30;94.00;;;7.15;83.38;97886.78;4960083;28;20870;-84
2022/04/19 00:23:48;;;;;;;2.00;1.73;;;6.20;94.30;;;7.17;82.76;97886.63;4960516;28;20473;-85
2022/04/19 00:26:19;;;;;;;2.53;1.90;;;6.30;94.30;;;7.07;82.71;97887.66;4960872;28;20479;-85
2022/04/19 00:28:48;;;;;;;4.50;1.90;;;6.30;94.00;;;6.98;83.71;97883.44;4959823;28;20459;-85
2022/04/19 00:31:19;;;;;;;4.00;1.73;;;6.20;94.10;;;6.89;84.25;97883.66;4960525;28;20464;-85
2022/04/19 00:33:50;;;;;;;3.17;1.77;;;6.20;94.00;;;6.83;84.48;97885.13;4961143;28;20938;-85
2022/04/19 00:36:23;;;;;;;2.03;1.53;;;6.20;94.00;;;6.80;84.86;97879.47;4960327;28;20887;-85
2022/04/19 00:38:52;;;;;;;1.97;1.60;;;6.00;94.30;;;6.80;84.94;97882.06;4959876;28;20490;-84
2022/04/19 00:41:21;;;;;;;3.13;1.90;;;6.10;94.10;;;6.74;85.09;97877.50;4960863;28;20475;-85
2022/04/19 00:43:51;;;;;;;6.87;2.20;;;5.90;94.50;;;6.82;85.47;97877.50;4957599;28;20463;-85
2022/04/19 00:46:21;;;;;;;4.07;1.80;;;5.90;94.60;;;6.83;85.16;97876.53;4961047;28;20493;-85
2022/04/19 00:48:53;;;;;;;2.40;2.00;;;5.90;94.60;;;6.70;85.32;97869.25;4960421;28;20450;-84
2022/04/19 00:51:25;;;;;;;3.00;2.00;;;5.80;94.60;;;6.63;85.27;97867.50;4959727;28;20490;-85
2022/04/19 00:53:57;;;;;;;2.47;1.90;;;5.80;94.70;;;6.61;85.50;97865.06;4960157;28;20471;-85
2022/04/19 00:56:29;;;;;;;2.30;1.90;;;5.70;94.80;;;6.58;86.00;97866.22;4960063;28;21181;-85
2022/04/19 00:58:59;;;;;;;9.23;2.10;;;5.70;95.00;;;6.61;86.12;97864.25;4960784;28;20495;-85
2022/04/19 01:01:28;;;;;;;3.90;1.80;;;5.80;94.60;;;6.59;85.59;97867.81;4960863;28;20968;-85
2022/04/19 01:04:00;;;;;;;3.13;2.13;;;5.70;94.70;;;6.58;86.09;97861.00;4963590;28;20536;-85
2022/04/19 01:06:30;;;;;;;2.50;1.63;;;5.70;94.70;;;6.54;86.06;97864.91;4967836;28;20455;-85
2022/04/19 01:09:00;;;;;;;2.57;1.50;;;5.70;94.80;;;6.58;85.61;97860.19;4966312;28;20458;-84
2022/04/19 01:14:17;;;;;;;2.73;1.97;;;5.60;94.70;;;6.41;86.88;97869.81;4967211;28;20505;-85
2022/04/19 01:16:49;;;;;;;1.97;1.70;;;5.50;95.00;;;6.42;86.97;97868.81;4967223;28;21094;-84
2022/04/19 01:19:23;;;;;;;2.40;1.70;;;5.40;95.30;;;6.46;86.70;97872.72;4964948;28;20488;-84
2022/04/19 01:21:57;;;;;;;2.60;1.83;;;5.50;94.80;;;6.45;86.33;97870.28;4967655;28;20488;-85
2022/04/19 01:24:26;;;;;;;3.53;1.87;;;5.50;94.80;;;6.38;87.29;97875.34;4966325;28;20956;-84
2022/04/19 01:26:58;;;;;;;2.67;1.97;;;5.50;94.80;;;6.35;86.53;97870.44;4965166;28;20456;-85
2022/04/19 01:29:30;;;;;;;5.27;2.30;;;5.60;94.60;;;6.30;87.00;97874.53;4968069;28;20456;-84
2022/04/19 01:32:06;;;;;;;1.90;1.50;;;5.60;94.60;;;6.17;87.36;97869.03;4967461;28;20444;-85
2022/04/19 01:34:36;;;;;;;1.70;1.60;;;5.40;94.90;;;6.06;88.92;97863.19;4966501;28;20448;-85
2022/04/19 01:37:09;;;;;;;2.40;1.90;;;5.20;95.60;;;6.14;89.10;97869.38;4964873;28;20472;-85
2022/04/19 01:42:26;;;;;;;2.23;1.90;;;5.30;95.30;;;6.13;88.80;97868.53;4962746;28;20495;-85
2022/04/19 01:44:55;;;;;;;2.60;1.93;;;5.30;95.40;;;6.10;88.85;97853.31;4959005;28;20830;-85
2022/04/19 01:47:26;;;;;;;2.67;1.73;;;5.20;95.70;;;6.01;89.27;97862.06;4962543;28;21007;-84
2022/04/19 01:49:57;;;;;;;2.20;1.60;;;5.20;95.20;;;5.97;89.40;97865.97;4962932;28;20484;-83
2022/04/19 01:52:28;;;;;;;2.50;1.90;;;5.20;95.30;;;5.93;89.79;97854.28;4963006;28;20487;-85
2022/04/19 01:54:58;;;;;;;4.60;2.07;;;5.20;95.30;;;5.85;90.24;97860.25;4962087;28;20529;-85
2022/04/19 01:57:28;;;;;;;2.00;1.80;;;5.00;95.60;;;5.77;90.49;97857.63;4963314;28;20451;-85
2022/04/19 01:59:58;;;;;;;3.70;1.73;;;4.90;95.80;;;5.76;91.19;97855.22;4963103;28;20597;-84
2022/04/19 02:02:27;;;;;;;3.43;2.00;;;4.90;95.90;;;5.74;91.49;97854.56;4963340;28;20538;-86
2022/04/19 02:04:57;;;;;;;2.43;1.57;;;4.90;96.00;;;5.73;91.72;97852.94;4965518;28;20454;-85
2022/04/19 02:07:28;;;;;;;2.43;1.90;;;4.80;96.20;;;5.82;92.41;97849.38;4964102;28;20503;-85
2022/04/19 02:09:58;;;;;;;2.10;1.70;;;4.80;96.30;;;5.87;91.81;97847.94;4963019;28;20461;-84
2022/04/19 02:12:28;;;;;;;2.43;1.80;;;4.90;96.10;;;5.87;91.33;97849.72;4963424;28;20454;-84
2022/04/19 02:14:59;;;;;;;2.50;1.73;;;4.90;95.90;;;5.82;90.70;97844.19;4963533;28;20980;-85
2022/04/19 02:17:29;;;;;;;7.50;1.80;;;4.90;95.90;;;5.83;90.82;97844.00;4964197;28;20465;-85
2022/04/19 02:20:01;;;;;;;2.90;1.80;;;4.90;95.90;;;5.79;90.68;97847.13;4963062;28;20592;-85
2022/04/19 02:22:33;;;;;;;2.50;1.80;;;4.90;95.90;;;5.74;91.45;97844.19;4962852;28;20461;-85
2022/04/19 02:25:03;;;;;;;3.30;1.90;;;4.80;96.10;;;5.61;91.50;97843.84;4964499;28;20465;-85
2022/04/19 02:27:33;;;;;;;3.07;2.27;;;4.80;95.80;;;5.59;91.85;97852.59;4963128;28;20881;-85
2022/04/19 02:30:05;;;;;;;4.33;2.17;;;4.80;95.80;;;5.57;91.82;97846.78;4963195;28;20445;-85
2022/04/19 02:32:35;;;;;;;3.67;2.10;;;4.80;95.80;;;5.54;92.42;97844.50;4963116;28;20453;-85
2022/04/19 02:35:09;;;;;;;2.77;1.67;;;4.70;96.00;;;5.62;92.68;97845.50;4960281;28;20460;-85
2022/04/19 02:37:48;;;;;;;2.20;2.00;;;4.70;96.10;;;5.62;92.38;97840.28;4964359;28;20448;-85
2022/04/19 02:40:19;;;;;;;2.23;1.80;;;4.70;96.00;;;5.64;91.84;97838.34;4965597;28;20487;-84
2022/04/19 02:42:51;;;;;;;2.03;1.63;;;4.80;96.10;;;5.55;92.15;97829.75;4967650;28;20448;-85
2022/04/19 02:45:21;;;;;;;1.70;1.50;;;4.70;96.10;;;5.50;92.21;97832.00;4980092;28;20503;-85
2022/04/19 02:48:03;;;;;;;3.63;2.10;;;4.60;96.30;;;5.43;92.59;97834.44;4962129;28;20442;-85
2022/04/19 02:50:35;;;;;;;3.50;2.17;;;4.50;96.30;;;5.39;93.19;97840.09;4962338;28;20450;-84
2022/04/19 02:53:07;;;;;;;2.03;1.60;;;4.50;96.10;;;5.29;93.70;97837.66;4961250;28;20466;-85
2022/04/19 02:55:37;;;;;;;4.00;1.70;;;4.40;96.40;;;5.23;93.71;97832.28;4960363;28;20447;-84
2022/04/19 02:58:08;;;;;;;2.87;1.90;;;4.40;96.30;;;5.23;94.66;97840.88;4960567;28;20846;-85
2022/04/19 03:00:38;;;;;;;9.33;2.47;;;4.40;96.90;;;5.26;94.33;97831.97;4962883;28;20506;-85
2022/04/19 03:03:09;;;;;;;2.03;1.80;;;4.40;96.50;;;5.27;94.20;97826.63;4964013;28;20866;-84
2022/04/19 03:05:41;;;;;;;4.63;2.00;;;4.40;96.50;;;5.26;94.53;97822.41;4962572;28;20451;-85
2022/04/19 03:08:12;;;;;;;2.30;1.97;;;4.40;96.40;;;5.23;94.06;97820.16;4962338;28;20540;-84
2022/04/19 03:10:42;;;;;;;3.63;2.13;;;4.40;96.50;;;5.17;94.41;97818.19;4962576;28;20488;-85
2022/04/19 03:13:12;;;;;;;2.70;1.87;;;4.40;96.40;;;5.13;94.49;97819.47;4960153;28;20472;-84
2022/04/19 03:15:42;;;;;;;2.03;1.60;;;4.40;96.40;;;5.08;94.94;97816.53;4961839;28;20548;-85
2022/04/19 03:18:11;;;;;;;2.17;1.47;;;4.30;96.60;;;5.07;95.35;97820.09;4962746;28;20479;-85
2022/04/19 03:20:45;;;;;;;2.43;1.80;;;4.20;96.60;;;5.03;95.58;97819.59;4961783;28;20531;-85
2022/04/19 03:28:48;;;;;;;4.27;2.10;;;4.20;96.60;;;4.96;95.92;97818.59;4962127;28;20459;-85
2022/04/19 03:31:18;;;;;;;6.10;2.00;;;4.10;97.10;;;4.95;95.88;97811.00;4963919;28;20548;-85
2022/04/19 03:33:51;;;;;;;4.20;1.77;;;4.10;96.90;;;4.95;95.98;97816.19;4960490;28;20496;-85
2022/04/19 03:36:21;;;;;;;3.50;2.10;;;4.10;96.70;;;4.85;96.36;97815.50;4962126;28;20447;-84
2022/04/19 03:38:54;;;;;;;4.73;2.30;;;4.10;96.60;;;4.77;96.99;97818.06;4960650;28;20924;-85
2022/04/19 03:44:11;;;;;;;3.87;2.20;;;3.90;97.00;;;4.69;97.96;97811.06;4962945;28;20521;-85
2022/04/19 03:49:26;;;;;;;5.03;2.20;;;4.00;96.70;;;4.63;99.21;97818.63;4962730;28;20534;-85
2022/04/19 03:51:54;;;;;;;3.20;2.10;;;4.00;96.80;;;4.68;99.13;97814.63;4965625;28;20813;-85
2022/04/19 03:54:27;;;;;;;3.40;2.00;;;4.00;96.90;;;4.66;99.02;97816.56;4964064;28;20457;-85
2022/04/19 03:56:56;;;;;;;2.80;2.20;;;4.00;96.80;;;4.63;99.06;97810.88;4964795;28;21053;-85
2022/04/19 03:59:27;;;;;;;4.10;2.20;;;4.00;96.80;;;4.61;99.30;97811.03;4963911;28;20573;-85
2022/04/19 04:01:57;;;;;;;5.70;2.30;;;3.90;97.00;;;4.61;99.20;97812.81;4963573;28;20508;-85
2022/04/19 04:04:30;;;;;;;6.43;1.80;;;3.90;97.00;;;4.61;99.54;97810.22;4963972;28;20807;-85
2022/04/19 04:07:01;;;;;;;2.10;1.90;;;3.80;97.30;;;4.58;99.98;97809.56;4960820;28;20510;-85
2022/04/19 04:09:33;;;;;;;3.77;1.80;;;3.70;97.60;;;4.58;99.32;97809.56;4961493;28;20454;-85
2022/04/19 04:12:04;;;;;;;2.20;1.70;;;3.70;97.70;;;4.58;99.62;97804.38;4959277;28;20510;-85
2022/04/19 04:14:34;;;;;;;2.23;1.80;;;3.70;97.60;;;4.54;99.60;97808.25;4961351;28;20966;-85
2022/04/19 04:17:04;;;;;;;2.53;1.90;;;3.70;97.40;;;4.48;99.65;97808.03;4960341;28;20499;-85
2022/04/19 04:19:33;;;;;;;2.20;1.80;;;3.60;97.50;;;4.44;100.00;97799.78;4960331;28;20551;-85
2022/04/19 04:22:03;;;;;;;4.67;1.90;;;3.60;97.70;;;4.54;100.00;97808.25;4960296;28;20496;-85
2022/04/19 04:24:34;;;;;;;7.43;2.00;;;3.60;97.60;;;4.56;99.71;97811.50;4960673;28;20462;-84
2022/04/19 04:27:05;;;;;;;2.20;1.70;;;3.70;97.30;;;4.50;99.74;97806.94;4961508;28;20536;-84
2022/04/19 04:29:36;;;;;;;2.53;1.60;;;3.70;97.30;;;4.45;100.00;97818.72;4960189;28;20459;-84
2022/04/19 04:32:10;;;;;;;4.57;1.90;;;3.60;97.50;;;4.47;100.00;97816.81;4961571;28;20534;-85
2022/04/19 04:34:39;;;;;;;2.00;1.70;;;3.70;97.40;;;4.38;100.00;97812.53;4959664;28;20441;-85
2022/04/19 04:37:10;;;;;;;3.37;2.13;;;3.50;97.70;;;4.37;100.00;97811.72;4961587;28;20443;-85
2022/04/19 04:39:42;;;;;;;3.40;1.70;;;3.50;97.80;;;4.42;100.00;97817.25;4961036;28;21011;-85
2022/04/19 04:42:16;;;;;;;3.57;1.70;;;3.50;97.90;;;4.41;100.00;97813.03;4964631;28;20471;-85
2022/04/19 04:44:46;;;;;;;2.93;1.80;;;3.60;97.50;;;4.38;100.00;97815.94;4965531;28;20904;-85
2022/04/19 04:50:02;;;;;;;2.93;1.60;;;3.50;97.90;;;4.33;100.00;97815.59;4964257;28;21093;-84
2022/04/19 04:52:33;;;;;;;3.90;1.80;;;3.50;97.80;;;4.35;100.00;97818.00;4962944;28;21147;-84
2022/04/19 04:55:05;;;;;;;2.03;1.70;;;3.50;97.60;;;4.36;100.00;97817.88;4963850;28;20482;-85
2022/04/19 04:57:36;;;;;;;4.73;2.03;;;3.60;97.60;;;4.37;100.00;97824.66;4966932;28;20458;-85
2022/04/19 05:00:08;;;;;;;2.43;2.23;;;3.60;97.60;;;4.36;100.00;97823.06;4966001;28;20497;-84
2022/04/19 05:02:39;;;;;;;2.60;2.30;;;3.50;97.70;;;4.36;100.00;97820.47;4964330;28;20450;-84
2022/04/19 05:05:09;;;;;;;4.40;2.20;;;3.50;97.90;;;4.39;100.00;97820.16;4965015;28;21249;-84
2022/04/19 05:07:39;;;;;;;3.80;2.10;;;3.60;97.60;;;4.37;100.00;97826.47;4964433;28;20484;-85
2022/04/19 05:10:11;;;;;;;5.33;2.47;;;3.60;97.80;;;4.38;100.00;97828.06;4965247;28;20549;-84
2022/04/19 05:12:40;;;;;;;4.37;2.07;;;3.60;97.70;;;4.39;100.00;97824.50;4962003;28;20479;-84
2022/04/19 05:15:10;;;;;;;2.00;1.80;;;3.60;97.90;;;4.37;100.00;97827.25;4964849;28;20563;-83
2022/04/19 05:17:39;;;;;;;2.90;1.90;;;3.60;97.60;;;4.37;100.00;97822.06;4961520;28;20573;-84
2022/04/19 05:20:10;;;;;;;2.47;2.17;;;3.60;97.80;;;4.41;100.00;97828.56;4963865;28;20496;-84
2022/04/19 05:22:39;;;;;;;4.03;2.30;;;3.60;98.00;;;4.46;100.00;97826.34;4962575;28;20471;-84
2022/04/19 05:25:11;;;;;;;3.07;2.30;;;3.60;98.10;;;4.48;100.00;97826.97;4964100;28;20481;-84
2022/04/19 05:27:41;;;;;;;4.33;2.20;;;3.60;98.20;;;4.54;100.00;97826.38;4964366;28;20473;-84
2022/04/19 05:30:13;;;;;;;25.00;2.40;;;3.60;98.40;;;4.63;100.00;97834.19;4962347;28;20959;-86
2022/04/19 05:32:44;;;;;;;3.10;1.67;;;3.70;98.30;;;4.68;100.00;97834.53;4964852;28;20470;-85
2022/04/19 05:35:14;;;;;;;7.50;1.83;;;3.80;98.20;;;4.74;100.00;97828.72;4963195;28;21395;-85
2022/04/19 05:37:46;;;;;;;3.57;2.33;;;3.80;98.10;;;4.76;100.00;97830.19;4960414;28;20494;-84
2022/04/19 05:40:18;;;;;;;3.60;2.00;;;3.90;98.10;;;4.80;100.00;97830.69;4963175;28;20523;-84
2022/04/19 05:42:49;;;;;;;6.73;2.33;;;3.80;98.30;;;4.82;100.00;97824.41;4961837;28;26070;-85
2022/04/19 05:45:20;;;;;;;3.07;2.20;;;3.90;98.30;;;4.83;100.00;97827.78;4956672;28;20463;-85
2022/04/19 05:47:51;;;;;;;2.20;2.00;;;4.00;98.10;;;4.85;100.00;97818.91;4960949;28;20554;-84
2022/04/19 05:50:20;;;;;;;1.63;1.53;;;4.00;98.20;;;4.84;100.00;97826.81;4961016;28;20482;-83
2022/04/19 05:52:50;;;;;;;2.07;1.87;;;4.00;98.10;;;4.87;100.00;97816.16;4960773;28;20576;-84
2022/04/19 05:55:22;;;;;;;2.23;1.90;;;4.00;98.30;;;4.90;100.00;97823.59;4959542;28;20468;-74
2022/04/19 05:57:52;;;;;;;5.57;2.53;;;4.10;98.40;;;4.97;100.00;97824.59;4960629;28;20480;-73
2022/04/19 06:00:22;;;;;;;2.90;2.30;;;4.00;98.60;;;5.03;100.00;97824.78;4962855;28;23969;-77
2022/04/19 06:05:39;;;;;;;4.00;2.00;;;4.20;98.20;;;5.15;100.00;97825.31;4959596;28;20465;-74
2022/04/19 06:08:10;;;;;;;6.70;2.50;;;4.30;98.00;;;5.18;100.00;97822.38;4961958;28;20482;-73
2022/04/19 06:10:42;;;;;;;3.20;2.10;;;4.30;98.00;;;5.25;100.00;97822.56;4960608;28;20471;-73
2022/04/19 06:13:12;;;;;;;2.40;2.00;;;4.40;97.90;;;5.30;100.00;97823.72;4961488;28;20972;-74
2022/04/19 06:15:43;;;;;;;3.10;1.97;;;4.40;97.90;;;5.36;100.00;97820.50;4960911;28;20459;-73
2022/04/19 06:18:12;;;;;;;5.43;2.07;;;4.50;97.90;;;5.41;100.00;97820.84;4962294;28;20464;-73
2022/04/19 06:20:41;;;;;;;8.43;2.57;;;4.50;98.30;;;5.45;100.00;97814.34;4960391;28;20927;-74
2022/04/19 06:23:11;;;;;;;4.27;2.20;;;4.60;98.30;;;5.50;100.00;97811.25;4962742;28;20468;-73
2022/04/19 06:25:42;;;;;;;2.90;1.47;;;4.60;98.40;;;5.55;100.00;97814.97;4960494;28;20511;-73
2022/04/19 06:28:12;;;;;;;7.70;2.50;;;4.60;98.20;;;5.59;100.00;97811.09;4963087;28;20466;-74
2022/04/19 06:30:43;;;;;;;6.23;2.10;;;4.70;97.90;;;5.70;100.00;97814.34;4960413;28;20464;-74
2022/04/19 06:33:12;;;;;;;5.57;2.27;;;4.80;98.00;;;5.75;100.00;97806.91;4961845;28;20973;-74
2022/04/19 06:35:42;;;;;;;5.30;1.97;;;4.80;98.00;;;5.81;100.00;97803.66;4959097;28;20496;-73
2022/04/19 06:38:11;;;;;;;2.93;2.00;;;4.90;98.20;;;5.86;100.00;97809.22;4963162;28;20463;-74
2022/04/19 06:40:43;;;;;;;2.13;1.93;;;5.00;98.30;;;5.91;100.00;97810.31;4962621;28;20481;-73
2022/04/19 06:43:13;;;;;;;2.20;1.93;;;5.00;98.40;;;5.98;100.00;97800.09;4961257;28;20457;-74
2022/04/19 06:45:43;;;;;;;2.03;1.80;;;5.10;97.90;;;6.04;100.00;97796.84;4960645;28;20470;-74
2022/04/19 06:48:13;;;;;;;2.10;1.90;;;5.20;98.00;;;6.11;100.00;97790.00;4960627;28;20472;-74
2022/04/19 06:50:44;;;;;;;3.80;2.03;;;5.30;97.80;;;6.17;99.78;97789.38;4961022;28;20462;-73
2022/04/19 06:53:34;;;;;;;3.73;1.63;;;5.30;97.80;;;6.23;99.48;97793.91;4960074;28;21082;-73
2022/04/19 06:56:06;;;;;;;5.00;2.30;;;5.40;98.00;;;6.31;99.83;97795.66;4961958;28;20481;-74
2022/04/19 06:58:35;;;;;;;2.90;1.90;;;5.40;98.00;;;6.37;100.00;97792.41;4960509;28;20465;-74
2022/04/19 07:01:06;;;;;;;2.80;2.13;;;5.50;98.30;;;6.44;99.68;97798.53;4960764;28;20542;-73
2022/04/19 07:03:36;;;;;;;3.73;2.10;;;5.50;98.00;;;6.50;99.52;97800.47;4960652;28;20458;-74
2022/04/19 07:06:07;;;;;;;4.03;2.10;;;5.60;97.90;;;6.57;99.56;97794.44;4960349;28;20876;-74
2022/04/19 07:08:38;;;;;;;3.07;1.90;;;5.70;98.10;;;6.63;99.50;97782.56;4959131;28;20557;-74
2022/04/19 07:11:11;;;;;;;8.23;1.93;;;5.70;98.00;;;6.71;99.09;97787.72;4962129;28;20467;-74
2022/04/19 07:13:42;;;;;;;3.00;1.90;;;5.80;98.00;;;6.78;99.15;97787.84;4958020;28;25040;-74
2022/04/19 07:16:11;;;;;;;2.97;2.10;;;5.90;98.00;;;6.85;98.99;97786.19;4960015;28;20514;-74
2022/04/19 07:18:41;;;;;;;4.20;2.33;;;6.00;98.30;;;6.93;98.99;97791.38;4959698;28;20510;-74
2022/04/19 07:26:48;;;;;;;4.30;2.00;;;6.30;97.50;;;7.17;97.24;97786.03;4958627;28;20475;-74
2022/04/19 07:29:19;;;;;;;2.03;1.70;;;6.30;97.50;;;7.23;97.13;97787.94;4961528;28;20460;-74
2022/04/19 07:31:51;;;;;;;2.63;2.30;;;6.50;97.50;;;7.31;96.82;97774.91;4959387;28;20528;-74
2022/04/19 07:34:20;;;;;;;3.20;2.27;;;6.50;97.30;;;7.39;96.71;97772.22;4960787;28;20508;-74
2022/04/19 07:36:51;;;;;;;2.63;2.20;;;6.60;97.20;;;7.47;95.46;97774.78;4962360;28;20474;-74
2022/04/19 07:39:22;;;;;;;2.73;1.83;;;6.80;97.10;;;7.56;94.85;97773.75;4961130;28;20576;-74
2022/04/19 07:41:54;;;;;;;5.27;2.17;;;6.90;97.00;;;7.66;94.39;97773.50;4958956;28;21004;-73
2022/04/19 07:44:23;;;;;;;3.70;2.00;;;7.00;96.90;;;7.76;94.15;97768.03;4957711;28;20468;-73
2022/04/19 07:46:52;;;;;;;3.50;2.20;;;7.10;96.80;;;7.86;93.46;97776.41;4961081;28;20477;-73
2022/04/19 07:49:23;;;;;;;2.70;1.67;;;7.20;96.60;;;7.97;92.68;97769.00;4961344;28;20461;-73
2022/04/19 07:51:54;;;;;;;2.50;2.10;;;7.40;96.60;;;8.09;92.63;97764.94;4960118;28;20461;-73
2022/04/19 07:54:24;;;;;;;5.10;2.03;;;7.40;96.60;;;8.19;92.11;97764.69;4960264;28;20807;-73
2022/04/19 07:56:59;;;;;;;3.03;1.90;;;7.50;96.50;;;8.33;92.05;97765.72;4962046;28;20450;-74
2022/04/19 07:59:29;;;;;;;3.63;1.70;;;7.70;96.60;;;8.44;91.63;97763.47;4959934;28;20452;-73
2022/04/19 08:02:01;;;;;;;3.27;2.00;;;7.80;96.40;;;8.53;91.16;97759.78;4960439;28;20501;-73
2022/04/19 08:04:32;;;;;;;6.10;2.43;;;8.00;96.30;;;8.66;90.16;97758.34;4965568;28;20468;-73
2022/04/19 08:07:04;;;;;;;3.67;2.33;;;8.10;96.00;;;8.78;89.05;97756.88;4964639;28;20452;-73
2022/04/19 08:09:35;;;;;;;3.90;2.13;;;8.20;95.50;;;8.92;87.56;97756.06;4959087;28;20469;-74
2022/04/19 08:12:08;;;;;;;2.17;1.87;;;8.40;95.50;;;9.07;84.43;97754.19;4960735;28;20471;-74
2022/04/19 08:14:41;;;;;;;4.10;2.20;;;8.60;94.60;;;9.26;83.54;97744.97;4958031;28;20493;-73
2022/04/19 08:17:11;;;;;;;5.20;2.53;;;8.70;94.40;;;9.38;82.75;97740.84;4959176;28;20488;-74
2022/04/19 08:19:41;;;;;;;3.17;1.83;;;8.90;94.40;;;9.51;81.00;97731.34;4959728;28;20469;-74
2022/04/19 08:22:11;;;;;;;3.47;2.03;;;9.00;93.90;;;9.66;79.95;97733.06;4959706;28;20500;-73
2022/04/19 08:24:41;;;;;;;3.30;1.60;;;9.20;93.70;;;9.81;77.01;97723.34;4958188;28;20992;-73
2022/04/19 08:27:15;;;;;;;2.30;1.87;;;9.40;93.00;;;10.00;75.40;97723.47;4958092;28;20464;-74
2022/04/19 08:29:46;;;;;;;3.83;2.07;;;9.60;92.60;;;10.17;75.21;97716.16;4954830;28;20595;-74
2022/04/19 08:32:15;;;;;;;2.93;2.03;;;9.70;92.70;;;10.30;73.63;97726.72;4958550;28;20556;-73
2022/04/19 08:34:46;;;;;;;2.63;1.83;;;9.80;92.40;;;10.41;70.99;97718.31;4958967;28;20512;-73
2022/04/19 08:37:17;;;;;;;2.33;1.70;;;10.00;91.20;;;10.52;71.55;97715.16;4957371;28;20473;-73
2022/04/19 08:39:46;;;;;;;3.50;1.57;;;10.00;91.40;;;10.67;68.60;97712.41;4957943;28;20474;-74
2022/04/19 08:42:18;;;;;;;1.93;1.73;;;10.30;90.50;;;10.85;66.23;97712.66;4956247;28;20829;-74
2022/04/19 08:44:52;;;;;;;2.90;1.83;;;10.50;89.70;;;11.01;65.69;97714.09;4959304;28;20468;-74
2022/04/19 08:47:24;;;;;;;50.57;20.40;;;10.60;89.60;;;11.16;64.26;97706.91;4959543;28;20465;-73
2022/04/19 08:50:04;;;;;;;3.00;2.13;;;10.70;89.20;;;11.27;64.05;97708.94;4959288;28;20464;-74
2022/04/19 08:52:35;;;;;;;4.63;1.80;;;10.80;89.40;;;11.37;62.27;97706.72;4960200;28;20839;-74
2022/04/19 08:57:57;;;;;;;2.60;1.93;;;11.00;88.50;;;11.59;63.25;97697.66;4959327;28;20850;-74
2022/04/19 09:00:28;;;;;;;2.30;1.83;;;11.10;89.00;;;11.66;62.47;97705.53;4958984;28;20553;-74
2022/04/19 09:02:58;;;;;;;2.17;1.70;;;11.20;88.30;;;11.75;60.86;97690.44;4959180;28;21038;-74
2022/04/19 09:05:29;;;;;;;3.97;2.00;;;11.30;87.60;;;11.82;60.83;97699.09;4957120;28;21127;-74
2022/04/19 09:07:59;;;;;;;2.90;1.93;;;11.40;87.20;;;11.91;60.56;97692.63;4960224;28;20956;-74
2022/04/19 09:10:32;;;;;;;3.60;1.83;;;11.50;87.30;;;12.03;59.90;97696.25;4960878;28;20475;-74
2022/04/19 09:13:06;;;;;;;1.90;1.60;;;11.60;86.40;;;12.16;59.64;97682.31;4959219;28;20462;-74
2022/04/19 09:15:39;;;;;;;2.73;2.00;;;11.70;87.00;;;12.28;59.67;97693.78;4957987;28;20826;-74
2022/04/19 09:18:23;;;;;;;3.40;1.73;;;11.80;87.30;;;12.34;59.44;97685.88;4960842;28;20466;-74
2022/04/19 09:20:54;;;;;;;7.03;2.63;;;11.90;86.70;;;12.45;58.53;97687.06;4959001;28;20475;-74
2022/04/19 09:23:25;;;;;;;3.77;2.17;;;12.00;85.90;;;12.53;58.17;97685.00;4959169;28;20995;-74
2022/04/19 09:25:57;;;;;;;2.70;1.80;;;12.10;85.60;;;12.61;57.70;97690.00;4962605;28;20476;-74
2022/04/19 09:28:28;;;;;;;5.07;2.23;;;12.20;85.50;;;12.73;56.34;97678.88;4963246;28;20595;-74
2022/04/19 09:31:00;;;;;;;4.60;2.30;;;12.40;84.20;;;12.86;56.53;97678.78;4960753;28;20461;-74
2022/04/19 09:33:30;;;;;;;3.30;2.17;;;12.40;84.60;;;12.93;56.23;97679.56;4963713;28;20527;-74
2022/04/19 09:36:03;;;;;;;5.30;2.30;;;12.50;84.50;;;12.98;55.84;97670.03;4961096;28;20553;-74
2022/04/19 09:38:41;;;;;;;7.43;2.50;;;12.50;83.90;;;13.05;55.41;97662.91;4962906;28;20460;-74
2022/04/19 09:41:16;;;;;;;9.93;2.00;;;12.60;83.90;;;13.10;55.87;97667.56;4961588;28;21014;-75
2022/04/19 09:44:07;;;;;;;3.53;2.40;;;12.70;84.50;;;13.19;54.82;97657.63;4962096;28;20501;-75
2022/04/19 09:46:37;;;;;;;2.57;1.93;;;12.70;83.60;;;13.26;55.26;97648.66;4961712;28;20472;-74
2022/04/19 09:49:08;;;;;;;3.30;2.00;;;12.80;83.90;;;13.30;55.14;97652.47;4960176;28;20870;-74
2022/04/19 09:51:38;;;;;;;5.30;3.00;;;12.80;84.00;;;13.38;54.12;97646.16;4961532;28;20472;-74
2022/04/19 09:54:22;;;;;;;3.13;1.97;;;13.00;83.00;;;13.52;53.61;97643.22;4958699;28;20963;-74
2022/04/19 09:56:52;;;;;;;8.03;2.33;;;13.10;82.40;;;13.64;53.82;97638.03;4958749;28;20964;-74
2022/04/19 09:59:26;;;;;;;7.00;2.30;;;13.20;82.90;;;13.77;53.28;97640.56;4960067;28;21031;-74
2022/04/19 10:10:20;;;;;;;4.03;2.80;;;13.60;79.60;;;14.13;50.54;97637.16;4961326;28;21354;-74
2022/04/19 10:12:51;;;;;;;4.70;3.23;;;13.50;80.10;;;14.16;50.36;97628.03;4960435;28;20556;-74
2022/04/19 10:15:22;;;;;;;8.83;3.43;;;13.60;80.30;;;14.18;50.46;97621.53;4961316;28;20460;-74
2022/04/19 10:17:52;;;;;;;265.80;129.83;;;13.70;80.40;;;14.25;49.90;97627.50;4960068;28;20466;-81
2022/04/19 10:20:31;;;;;;;15.43;6.67;;;13.60;79.70;;;14.28;50.05;97627.06;4960044;28;20548;-75
2022/04/19 10:23:09;;;;;;;4.20;3.00;;;13.70;79.80;;;14.30;49.86;97625.00;4959438;28;20487;-75
2022/04/19 10:25:43;;;;;;;3.33;2.30;;;13.70;79.80;;;14.40;50.05;97614.00;4960907;28;20472;-75
2022/04/19 10:28:15;;;;;;;3.87;2.70;;;13.70;80.60;;;14.39;50.12;97615.03;4958081;28;20466;-74
2022/04/19 10:30:51;;;;;;;9.60;5.60;;;13.80;80.40;;;14.42;49.90;97607.50;4961997;28;21038;-74
2022/04/19 10:33:49;;;;;;;13.57;3.30;;;13.90;79.70;;;14.55;49.52;97614.41;4962442;28;20496;-74
2022/04/19 10:36:21;;;;;;;6.00;3.10;;;14.10;79.40;;;14.63;49.09;97614.09;4959991;28;20962;-74
2022/04/19 10:39:26;;;;;;;5.67;2.97;;;14.20;79.30;;;14.71;49.32;97615.63;4961181;28;20472;-74
2022/04/19 10:41:59;;;;;;;26.30;16.87;;;14.20;79.60;;;14.74;49.16;97615.19;4930320;28;20469;-81
2022/04/19 10:44:36;;;;;;;3.53;2.80;;;14.20;79.40;;;14.79;49.24;97616.09;4962063;28;20563;-74
2022/04/19 10:51:31;;;;;;;4.63;3.20;;;14.30;77.70;;;14.88;48.14;97611.34;4962178;28;20460;-74
2022/04/19 10:54:03;;;;;;;3.70;2.83;;;14.30;78.20;;;14.94;48.21;97610.44;4963004;28;20465;-75
2022/04/19 10:58:05;;;;;;;6.87;3.60;;;14.30;78.20;;;14.95;48.05;97606.78;4961909;28;20933;-74
2022/04/19 11:00:22;;;;;;;4.37;3.20;;;14.40;78.90;;;14.98;47.34;97603.69;4963078;28;20962;-75
2022/04/19 11:03:13;;;;;;;3.70;2.60;;;14.50;77.50;;;15.02;47.78;97602.22;4960414;28;20947;-74
2022/04/19 11:05:45;;;;;;;4.00;3.03;;;14.50;78.20;;;15.09;48.67;97597.66;4965206;28;20837;-74
2022/04/19 11:08:37;;;;;;;3.33;2.33;;;14.60;79.20;;;15.16;48.22;97600.19;4962229;28;20474;-74
2022/04/19 11:11:26;;;;;;;9.80;2.90;;;14.70;78.80;;;15.23;47.69;97593.78;4966982;28;20469;-74
2022/04/19 11:14:41;;;;;;;7.03;2.73;;;14.80;78.10;;;15.38;48.22;97594.13;4963613;28;20955;-74
2022/04/19 11:17:24;;;;;;;4.73;3.20;;;15.00;79.00;;;15.47;48.19;97589.31;4965723;28;20467;-74
2022/04/19 11:20:15;;;;;;;7.60;4.17;;;15.00;79.30;;;15.57;45.25;97598.28;4963126;28;20533;-74
2022/04/19 11:22:51;;;;;;;5.10;3.13;;;15.20;75.20;;;15.57;45.25;97595.66;4961346;28;20951;-74
2022/04/19 11:25:43;;;;;;;5.07;3.53;;;15.20;75.50;;;15.58;45.33;97589.31;4960913;28;20463;-74
2022/04/19 11:28:42;;;;;;;7.80;3.33;;;15.00;75.60;;;15.62;45.48;97581.00;4960486;28;20449;-74
2022/04/19 11:31:15;;;;;;;4.30;3.10;;;15.00;76.00;;;15.62;45.64;97581.75;4959943;28;20453;-74
2022/04/19 11:33:46;;;;;;;8.90;2.93;;;15.00;76.30;;;15.70;46.05;97585.88;4960431;28;20491;-74